Time;durP1;ratioP1;P1;durP2;ratioP2;P2;SDS_P1;SDS_P2;PMS_P1;PMS_P2;Temp;Humidity;BMP_temperature;BMP_pressure;BME280_temperature;BME280_humidity;BME280_pressure;Samples;Min_cycle;Max_cycle;Signal;HPM_P1;HPM_P2
2020/01/05 00:00:36;;;;;;;14.3;3.9;;;;;;;5.43;70.49707;975.7014;;;;
2020/01/05 00:03:01;;;;;;;8.4;3.2;;;;;;;5.32;70.45508;975.7498;;;;
2020/01/05 00:05:26;;;;;;;11.7;3.4;;;;;;;5.34;70.37695;975.7575;;;;
2020/01/05 00:07:52;;;;;;;13.7;3.5;;;;;;;5.32;70.58203;975.7272;;;;
2020/01/05 00:10:17;;;;;;;9.9;3.3;;;;;;;5.32;70.55957;975.6525;;;;
2020/01/05 00:12:42;;;;;;;10.3;3.3;;;;;;;5.34;70.59668;975.6906;;;;
2020/01/05 00:15:07;;;;;;;11.4;3.8;;;;;;;5.19;70.74609;975.7193;;;;
2020/01/05 00:17:33;;;;;;;9.8;3.4;;;;;;;5.27;70.59668;975.7698;;;;
2020/01/05 00:19:57;;;;;;;12.5;3.6;;;;;;;5.27;70.64355;975.769;;;;
2020/01/05 00:22:23;;;;;;;8.4;3.4;;;;;;;5.25;70.5;975.7363;;;;
2020/01/05 00:24:48;;;;;;;9.9;3.3;;;;;;;5.24;70.44043;975.7537;;;;
2020/01/05 00:27:13;;;;;;;9.9;3.3;;;;;;;5.27;70.50293;975.6989;;;;
2020/01/05 00:29:38;;;;;;;7.2;3.1;;;;;;;5.28;70.65625;975.7874;;;;
2020/01/05 00:32:03;;;;;;;9.6;3.4;;;;;;;5.26;70.50098;975.7935;;;;
2020/01/05 00:34:28;;;;;;;9.2;3.5;;;;;;;5.33;70.52441;975.8466;;;;
2020/01/05 00:36:53;;;;;;;8.3;3.3;;;;;;;5.31;70.58105;975.8875;;;;
2020/01/05 00:39:18;;;;;;;7.9;3.2;;;;;;;5.25;70.51172;975.9089;;;;
2020/01/05 00:41:43;;;;;;;10.4;3.5;;;;;;;5.24;70.66211;975.9601;;;;
2020/01/05 00:44:09;;;;;;;8.2;3;;;;;;;5.27;70.59668;975.8627;;;;
2020/01/05 00:46:34;;;;;;;9.9;3.5;;;;;;;5.31;70.75293;975.8617;;;;
2020/01/05 00:48:59;;;;;;;11.2;3.8;;;;;;;5.28;70.74902;975.9149;;;;
2020/01/05 00:51:24;;;;;;;7.7;3.2;;;;;;;5.3;70.52051;975.965;;;;
2020/01/05 00:53:49;;;;;;;11.5;3.5;;;;;;;5.35;70.5293;975.9875;;;;
2020/01/05 00:56:14;;;;;;;8;3.3;;;;;;;5.3;70.49707;976.1507;;;;
2020/01/05 00:58:39;;;;;;;8.3;3.3;;;;;;;5.36;70.4707;976.1906;;;;
2020/01/05 01:01:04;;;;;;;11.5;3.4;;;;;;;5.34;70.30762;976.2288;;;;
2020/01/05 01:03:29;;;;;;;10;3.4;;;;;;;5.41;70.13379;976.1626;;;;
2020/01/05 01:05:55;;;;;;;9.1;3.1;;;;;;;5.46;70.06152;976.2389;;;;
2020/01/05 01:08:20;;;;;;;9.8;3.3;;;;;;;5.45;70.07129;976.2512;;;;
2020/01/05 01:11:48;;;;;;;8.1;3.5;;;;;;;5.35;70.10059;976.3264;;;;
2020/01/05 01:14:13;;;;;;;10.1;3.4;;;;;;;5.39;70.18555;976.3102;;;;
2020/01/05 01:16:38;;;;;;;11.1;3.5;;;;;;;5.42;70.16992;976.3351;;;;
2020/01/05 01:19:04;;;;;;;10.7;3.7;;;;;;;5.29;70.29883;976.334;;;;
2020/01/05 01:21:29;;;;;;;9.6;3.3;;;;;;;5.32;70.37402;976.248;;;;
2020/01/05 01:23:54;;;;;;;8.9;3.2;;;;;;;5.4;70.08496;976.1954;;;;
2020/01/05 01:26:19;;;;;;;9.5;3.4;;;;;;;5.41;70.15723;976.3336;;;;
2020/01/05 01:28:44;;;;;;;9.7;3.3;;;;;;;5.37;70.2998;976.3901;;;;
2020/01/05 01:31:09;;;;;;;9.9;3.4;;;;;;;5.31;70.13965;976.3837;;;;
2020/01/05 01:33:34;;;;;;;7.5;3.2;;;;;;;5.28;70.49414;976.4449;;;;
2020/01/05 01:35:59;;;;;;;9.9;3.5;;;;;;;5.19;71.10352;976.4139;;;;
2020/01/05 01:38:24;;;;;;;11.4;3.4;;;;;;;5.18;71.2998;976.3865;;;;
2020/01/05 01:40:50;;;;;;;7.3;3.3;;;;;;;5.25;71.78516;976.4277;;;;
2020/01/05 01:43:15;;;;;;;8.4;2.8;;;;;;;5.3;71.55078;976.5217;;;;
2020/01/05 01:45:40;;;;;;;9.6;3.4;;;;;;;5.24;72.14258;976.5178;;;;
2020/01/05 01:48:05;;;;;;;11.1;3.2;;;;;;;5.15;72.08105;976.5349;;;;
2020/01/05 01:50:30;;;;;;;9.5;3.2;;;;;;;5.17;72.07227;976.57;;;;
2020/01/05 01:52:55;;;;;;;10.1;3.4;;;;;;;5.21;72.42871;976.7157;;;;
2020/01/05 01:55:20;;;;;;;10.2;3.6;;;;;;;5.13;72.69141;976.6331;;;;
2020/01/05 01:57:45;;;;;;;10.1;3.5;;;;;;;5.22;72.97266;976.6526;;;;
2020/01/05 02:00:11;;;;;;;11.6;3.6;;;;;;;5.31;72.62891;976.6766;;;;
2020/01/05 02:02:35;;;;;;;12.5;3.3;;;;;;;5.19;73.10547;976.7349;;;;
2020/01/05 02:05:00;;;;;;;7.8;3.7;;;;;;;5.24;72.89648;976.812;;;;
2020/01/05 02:07:26;;;;;;;10.5;3.6;;;;;;;5.13;73.18945;976.8444;;;;
2020/01/05 02:09:51;;;;;;;11.2;3.8;;;;;;;5.05;73.62695;976.8517;;;;
2020/01/05 02:12:16;;;;;;;10;3.7;;;;;;;5.13;74.00977;976.8138;;;;
2020/01/05 02:14:41;;;;;;;8.1;3.6;;;;;;;5.14;73.96484;976.7964;;;;
2020/01/05 02:17:06;;;;;;;7.9;3.5;;;;;;;5.18;73.53223;976.823;;;;
2020/01/05 02:19:31;;;;;;;9.8;3.6;;;;;;;5.14;73.66406;976.9673;;;;
2020/01/05 02:21:56;;;;;;;8.4;3.5;;;;;;;5.16;73.91113;977.0446;;;;
2020/01/05 02:24:21;;;;;;;8.8;3.4;;;;;;;5.11;73.31152;977.0391;;;;
2020/01/05 02:26:46;;;;;;;9.8;3.5;;;;;;;5.09;73.50586;977.0429;;;;
2020/01/05 02:29:11;;;;;;;10.8;3.8;;;;;;;5.02;73.4375;977.1013;;;;
2020/01/05 02:31:36;;;;;;;11.3;3.9;;;;;;;5.06;73.96289;977.1581;;;;
2020/01/05 02:34:01;;;;;;;7.9;3.6;;;;;;;5.06;73.16504;977.1868;;;;
2020/01/05 02:36:26;;;;;;;12.8;3.7;;;;;;;5.08;73.37695;977.1744;;;;
2020/01/05 02:38:51;;;;;;;9.7;3.6;;;;;;;5.12;73.91504;977.1649;;;;
2020/01/05 02:41:17;;;;;;;10.4;3.6;;;;;;;5.06;73.40723;977.2057;;;;
2020/01/05 02:43:42;;;;;;;10.5;3.5;;;;;;;5.04;73.25391;977.1535;;;;
2020/01/05 02:46:07;;;;;;;10.2;3.4;;;;;;;5.05;73.25684;977.2025;;;;
2020/01/05 02:48:32;;;;;;;9.7;3.5;;;;;;;5.05;73.14063;977.3025;;;;
2020/01/05 02:50:57;;;;;;;8.9;3.4;;;;;;;5.09;72.71875;977.3162;;;;
2020/01/05 02:53:22;;;;;;;9.6;3.3;;;;;;;5;72.95801;977.3301;;;;
2020/01/05 02:55:47;;;;;;;9.9;3.7;;;;;;;5.11;72.61719;977.3699;;;;
2020/01/05 02:58:12;;;;;;;8.9;3.4;;;;;;;5.06;72.51758;977.3247;;;;
2020/01/05 03:00:37;;;;;;;9.7;3.5;;;;;;;5.08;72.90234;977.2615;;;;
2020/01/05 03:05:34;;;;;;;10.9;3.8;;;;;;;5.08;72.76367;977.3035;;;;
2020/01/05 03:07:52;;;;;;;10.8;3.6;;;;;;;5.1;72.4541;977.3062;;;;
2020/01/05 03:10:17;;;;;;;11.4;3.5;;;;;;;5.11;72.38574;977.2972;;;;
2020/01/05 03:12:42;;;;;;;10.5;3.1;;;;;;;5.08;72.82129;977.3858;;;;
2020/01/05 03:15:07;;;;;;;9.8;3.6;;;;;;;5.16;72.61523;977.3374;;;;
2020/01/05 03:17:32;;;;;;;11.4;4;;;;;;;5.07;72.44922;977.3416;;;;
2020/01/05 03:19:58;;;;;;;9.2;3.5;;;;;;;5.08;72.625;977.2776;;;;
2020/01/05 03:22:23;;;;;;;8.1;3.7;;;;;;;5.04;73.01172;977.1261;;;;
2020/01/05 03:24:48;;;;;;;12.2;3.7;;;;;;;5.05;72.875;977.0767;;;;
2020/01/05 03:27:14;;;;;;;9.6;3.8;;;;;;;5.09;72.86914;977.1252;;;;
2020/01/05 03:29:39;;;;;;;15.2;3.7;;;;;;;5.05;72.83984;977.0823;;;;
2020/01/05 03:32:04;;;;;;;10.4;3.7;;;;;;;4.95;73.55078;977.0931;;;;
2020/01/05 03:34:29;;;;;;;9.2;3.6;;;;;;;4.96;73.2998;977.072;;;;
2020/01/05 03:36:54;;;;;;;8.9;3.7;;;;;;;5.03;73.20605;977.0745;;;;
2020/01/05 03:39:20;;;;;;;8.4;3.4;;;;;;;5.01;73.36621;977.0533;;;;
2020/01/05 03:41:45;;;;;;;9.7;3.6;;;;;;;4.94;73.62988;977.0403;;;;
2020/01/05 03:44:10;;;;;;;10.1;3.6;;;;;;;5.07;73.67578;977.1125;;;;
2020/01/05 03:46:35;;;;;;;10.9;3.7;;;;;;;4.98;73.6377;977.1451;;;;
2020/01/05 03:49:01;;;;;;;13.6;3.7;;;;;;;4.94;74.20898;977.1622;;;;
2020/01/05 03:51:26;;;;;;;12.9;3.9;;;;;;;4.82;74.05957;977.2169;;;;
2020/01/05 03:53:51;;;;;;;10.6;3.7;;;;;;;4.92;73.74121;977.2625;;;;
2020/01/05 03:56:16;;;;;;;9.8;3.8;;;;;;;4.91;74.08691;977.2628;;;;
2020/01/05 03:58:41;;;;;;;10;3.8;;;;;;;4.91;73.74121;977.2814;;;;
2020/01/05 04:02:26;;;;;;;13.1;4.2;;;;;;;4.92;73.99609;977.2213;;;;
2020/01/05 04:04:51;;;;;;;11;3.9;;;;;;;4.94;73.39844;977.217;;;;
2020/01/05 04:07:16;;;;;;;9.3;3.7;;;;;;;4.91;73.74121;977.2495;;;;
2020/01/05 04:09:41;;;;;;;11.1;3.8;;;;;;;5.01;73.50195;977.2462;;;;
2020/01/05 04:12:26;;;;;;;10.8;3.7;;;;;;;4.96;73.75098;977.2511;;;;
2020/01/05 04:14:35;;;;;;;9.3;3.9;;;;;;;5.02;73.13672;977.3303;;;;
2020/01/05 04:16:57;;;;;;;12;3.6;;;;;;;5.05;73.25684;977.2905;;;;
2020/01/05 04:19:22;;;;;;;9.1;3.5;;;;;;;5.01;73.32813;977.3155;;;;
2020/01/05 04:21:47;;;;;;;9.4;3.8;;;;;;;5.14;73.00586;977.3109;;;;
2020/01/05 04:24:12;;;;;;;9.9;3.7;;;;;;;5.05;72.93262;977.3348;;;;
2020/01/05 04:26:37;;;;;;;10.6;4.1;;;;;;;5.1;73.19434;977.3304;;;;
2020/01/05 04:29:02;;;;;;;12;4.4;;;;;;;5.05;73.40723;977.4114;;;;
2020/01/05 04:31:27;;;;;;;10.8;4;;;;;;;5.15;73.22656;977.4246;;;;
2020/01/05 04:33:52;;;;;;;9.3;3.8;;;;;;;5.07;73.62012;977.4827;;;;
2020/01/05 04:36:17;;;;;;;10;4.3;;;;;;;4.98;74.07715;977.4266;;;;
2020/01/05 04:38:43;;;;;;;12.1;4.5;;;;;;;4.99;74.26563;977.4342;;;;
2020/01/05 04:41:08;;;;;;;11.2;4.6;;;;;;;4.98;74.43457;977.4977;;;;
2020/01/05 04:43:33;;;;;;;10.5;4.2;;;;;;;4.98;74.13379;977.4832;;;;
2020/01/05 04:45:58;;;;;;;12;4.2;;;;;;;5.03;74.10938;977.5577;;;;
2020/01/05 04:48:23;;;;;;;11.1;4.4;;;;;;;5.03;73.95801;977.5762;;;;
2020/01/05 04:50:48;;;;;;;11.5;4.3;;;;;;;5.04;73.77539;977.5712;;;;
2020/01/05 04:53:13;;;;;;;8.4;4.1;;;;;;;5.09;73.94531;977.6212;;;;
2020/01/05 04:55:38;;;;;;;10;4.2;;;;;;;5.04;73.91309;977.5939;;;;
2020/01/05 04:58:03;;;;;;;13.3;4.4;;;;;;;5.07;73.25977;977.6255;;;;
2020/01/05 05:00:28;;;;;;;12.4;4.5;;;;;;;5.1;72.97656;977.6247;;;;
2020/01/05 05:02:53;;;;;;;13.3;4.6;;;;;;;5.14;73.06152;977.7397;;;;
2020/01/05 05:05:18;;;;;;;12.2;4.4;;;;;;;5.16;72.52246;977.806;;;;
2020/01/05 05:07:43;;;;;;;12.4;4.3;;;;;;;5.15;72.85645;977.8836;;;;
2020/01/05 05:10:09;;;;;;;12.8;4.7;;;;;;;5.13;72.51758;977.8937;;;;
2020/01/05 05:12:34;;;;;;;12.6;4.5;;;;;;;5.14;72.90137;977.9692;;;;
2020/01/05 05:14:59;;;;;;;11.9;4.5;;;;;;;5.17;72.94043;977.935;;;;
2020/01/05 05:17:24;;;;;;;12.4;4.7;;;;;;;5.26;72.11035;977.9888;;;;
2020/01/05 05:19:49;;;;;;;9.2;4.2;;;;;;;5.26;72.09863;977.933;;;;
2020/01/05 05:22:14;;;;;;;13;4.7;;;;;;;5.24;72.17676;977.9812;;;;
2020/01/05 05:24:39;;;;;;;10;4.6;;;;;;;5.18;72.12207;977.9919;;;;
2020/01/05 05:27:04;;;;;;;10.1;4.6;;;;;;;5.16;72.45313;978.0561;;;;
2020/01/05 05:29:29;;;;;;;11.8;4.6;;;;;;;5.23;72.16406;978.1361;;;;
2020/01/05 05:31:54;;;;;;;11.6;4.6;;;;;;;5.25;72.20117;978.1376;;;;
2020/01/05 05:34:19;;;;;;;10.6;4.2;;;;;;;5.17;72.4541;978.1133;;;;
2020/01/05 05:36:44;;;;;;;13;4.6;;;;;;;5.23;72.00195;978.0652;;;;
2020/01/05 05:39:09;;;;;;;9.2;4.1;;;;;;;5.21;72;978.0823;;;;
2020/01/05 05:41:35;;;;;;;12.3;4.6;;;;;;;5.21;71.96289;978.1336;;;;
2020/01/05 05:44:00;;;;;;;9.7;4.2;;;;;;;5.26;71.91504;978.1766;;;;
2020/01/05 05:46:25;;;;;;;11.3;4.5;;;;;;;5.15;72.24121;978.1845;;;;
2020/01/05 05:48:50;;;;;;;8.5;3.8;;;;;;;5.23;72.10449;978.1249;;;;
2020/01/05 05:51:15;;;;;;;11.4;4.7;;;;;;;5.22;72.03516;978.1355;;;;
2020/01/05 05:53:41;;;;;;;12.2;4.5;;;;;;;5.25;71.85449;978.1586;;;;
2020/01/05 05:56:06;;;;;;;9.3;4.1;;;;;;;5.35;71.62891;978.091;;;;
2020/01/05 05:58:31;;;;;;;11.5;4.2;;;;;;;5.29;71.81543;978.1235;;;;
2020/01/05 06:00:56;;;;;;;11.3;4.2;;;;;;;5.19;71.98438;978.1047;;;;
2020/01/05 06:03:21;;;;;;;9.8;4.5;;;;;;;5.24;72.0498;978.1619;;;;
2020/01/05 06:05:46;;;;;;;9.1;3.9;;;;;;;5.22;71.91895;978.1435;;;;
2020/01/05 06:08:11;;;;;;;12.4;4.4;;;;;;;5.29;71.68848;978.1688;;;;
2020/01/05 06:10:36;;;;;;;9.6;4.4;;;;;;;5.31;71.8418;978.1266;;;;
2020/01/05 06:13:01;;;;;;;9.8;4;;;;;;;5.31;71.99219;978.0943;;;;
2020/01/05 06:15:27;;;;;;;11.9;4.3;;;;;;;5.38;71.69141;978.1283;;;;
2020/01/05 06:17:52;;;;;;;10.6;4;;;;;;;5.32;72.14355;978.1191;;;;
2020/01/05 06:20:17;;;;;;;10;4.3;;;;;;;5.4;71.76367;978.1619;;;;
2020/01/05 06:22:42;;;;;;;10.7;4.5;;;;;;;5.32;71.62402;978.1914;;;;
2020/01/05 06:25:25;;;;;;;8.1;3.9;;;;;;;5.3;72.01367;978.2081;;;;
2020/01/05 06:27:50;;;;;;;10.4;4;;;;;;;5.26;71.87891;978.2106;;;;
2020/01/05 06:30:15;;;;;;;9.4;4;;;;;;;5.36;71.91797;978.2031;;;;
2020/01/05 06:32:40;;;;;;;9.7;4.1;;;;;;;5.37;71.80566;978.1785;;;;
2020/01/05 06:35:05;;;;;;;10.3;4.1;;;;;;;5.28;71.88379;978.1982;;;;
2020/01/05 06:37:30;;;;;;;9.8;4.4;;;;;;;5.3;72.05957;978.2629;;;;
2020/01/05 06:39:55;;;;;;;10.2;4.6;;;;;;;5.3;72.10645;978.2548;;;;
2020/01/05 06:42:21;;;;;;;8.6;4.3;;;;;;;5.31;72.17871;978.2338;;;;
2020/01/05 06:44:46;;;;;;;11.8;4.4;;;;;;;5.26;72.64258;978.2767;;;;
2020/01/05 06:47:11;;;;;;;9.4;4.2;;;;;;;5.27;72.28516;978.3145;;;;
2020/01/05 06:49:36;;;;;;;10.6;4.4;;;;;;;5.23;72.78711;978.3783;;;;
2020/01/05 06:52:01;;;;;;;11.2;4.4;;;;;;;5.27;72.57617;978.3903;;;;
2020/01/05 06:54:26;;;;;;;8.9;4.3;;;;;;;5.28;72.58984;978.3514;;;;
2020/01/05 06:56:51;;;;;;;10.5;4.9;;;;;;;5.26;72.82813;978.3703;;;;
2020/01/05 06:59:17;;;;;;;12.7;4.5;;;;;;;5.26;72.67969;978.4331;;;;
2020/01/05 07:01:42;;;;;;;9.3;4.3;;;;;;;5.22;72.97266;978.4517;;;;
2020/01/05 07:04:07;;;;;;;9.7;4.4;;;;;;;5.25;72.93066;978.485;;;;
2020/01/05 07:06:32;;;;;;;11.2;4.2;;;;;;;5.25;72.47949;978.428;;;;
2020/01/05 07:08:57;;;;;;;10.5;4.1;;;;;;;5.3;72.73145;978.4325;;;;
2020/01/05 07:13:47;;;;;;;8.2;4;;;;;;;5.24;72.88477;978.4241;;;;
2020/01/05 07:16:12;;;;;;;10.6;4.3;;;;;;;5.16;73.18164;978.4239;;;;
2020/01/05 07:18:37;;;;;;;9;4;;;;;;;5.18;73.07129;978.4355;;;;
2020/01/05 07:21:02;;;;;;;11.5;4.3;;;;;;;5.11;73.3584;978.4554;;;;
2020/01/05 07:23:27;;;;;;;10.6;4.1;;;;;;;5.13;73.44336;978.4844;;;;
2020/01/05 07:25:52;;;;;;;10.2;4.4;;;;;;;5.12;73.86914;978.507;;;;
2020/01/05 07:28:17;;;;;;;9.8;4.3;;;;;;;5.14;73.76953;978.5597;;;;
2020/01/05 07:30:42;;;;;;;9.9;4.4;;;;;;;5.16;73.49414;978.5466;;;;
2020/01/05 07:33:07;;;;;;;10.1;4.4;;;;;;;5.23;73.18262;978.5089;;;;
2020/01/05 07:35:32;;;;;;;10.4;4.3;;;;;;;5.3;73.04395;978.5107;;;;
2020/01/05 07:37:58;;;;;;;9.6;4.5;;;;;;;5.38;72.88379;978.5189;;;;
2020/01/05 07:40:23;;;;;;;11;4.8;;;;;;;5.41;72.55371;978.5173;;;;
2020/01/05 07:42:48;;;;;;;10.6;4.3;;;;;;;5.46;74.52051;978.5406;;;;
2020/01/05 07:45:18;;;;;;;11.9;4.6;;;;;;;5.56;73.16992;978.5837;;;;
2020/01/05 07:47:38;;;;;;;8.7;4.1;;;;;;;5.71;72.31543;978.6258;;;;
2020/01/05 07:50:35;;;;;;;10.8;4.4;;;;;;;5.64;71.73535;978.6733;;;;
2020/01/05 07:52:28;;;;;;;11.1;4.5;;;;;;;5.68;71.28906;978.7388;;;;
2020/01/05 07:54:53;;;;;;;11.8;4.6;;;;;;;5.58;71.8291;978.7562;;;;
2020/01/05 07:57:18;;;;;;;9.3;4.3;;;;;;;5.52;71.95801;978.7839;;;;
2020/01/05 07:59:43;;;;;;;12.1;4.4;;;;;;;5.5;72.00195;978.8055;;;;
2020/01/05 08:02:08;;;;;;;11.6;4.6;;;;;;;5.43;72.08398;978.8408;;;;
2020/01/05 08:04:34;;;;;;;11.2;4.5;;;;;;;5.46;72.22754;978.8571;;;;
2020/01/05 08:06:59;;;;;;;9.7;4.2;;;;;;;5.56;72.08105;978.8211;;;;
2020/01/05 08:09:24;;;;;;;11.4;4.6;;;;;;;5.54;71.94922;978.8434;;;;
2020/01/05 08:11:49;;;;;;;10.5;4.4;;;;;;;5.58;72.33887;978.8006;;;;
2020/01/05 08:14:14;;;;;;;11;4.8;;;;;;;5.67;72.08789;978.7922;;;;
2020/01/05 08:16:39;;;;;;;12.9;5;;;;;;;5.86;71.12305;978.8345;;;;
2020/01/05 08:19:04;;;;;;;8.8;4.2;;;;;;;5.71;71.22559;978.8503;;;;
2020/01/05 08:21:29;;;;;;;12.1;4.2;;;;;;;5.81;71.2998;978.8621;;;;
2020/01/05 08:23:54;;;;;;;13.6;4.6;;;;;;;5.88;71.11426;978.9127;;;;
2020/01/05 08:26:19;;;;;;;10.3;4.4;;;;;;;5.81;71.39258;978.9202;;;;
2020/01/05 08:28:44;;;;;;;10.3;4.5;;;;;;;5.79;71.19238;978.8793;;;;
2020/01/05 08:31:10;;;;;;;10.6;4.6;;;;;;;5.88;70.70898;978.8981;;;;
2020/01/05 08:33:35;;;;;;;9.5;4.4;;;;;;;5.95;70.7207;978.9127;;;;
2020/01/05 08:36:00;;;;;;;11.4;4.4;;;;;;;5.82;71.18555;978.9092;;;;
2020/01/05 08:38:25;;;;;;;11.9;4.9;;;;;;;5.84;71.37402;978.9422;;;;
2020/01/05 08:40:50;;;;;;;10.8;4.2;;;;;;;5.86;71.04102;978.9497;;;;
2020/01/05 08:43:15;;;;;;;11;4.6;;;;;;;5.88;71.04492;978.991;;;;
2020/01/05 08:45:40;;;;;;;10.8;4.6;;;;;;;5.91;70.96777;978.9467;;;;
2020/01/05 08:48:05;;;;;;;9.9;4.1;;;;;;;5.77;71.35156;978.925;;;;
2020/01/05 08:50:31;;;;;;;10.9;4.4;;;;;;;5.83;71.24512;978.8842;;;;
2020/01/05 08:52:56;;;;;;;10.7;4.4;;;;;;;5.83;71.46484;978.872;;;;
2020/01/05 08:55:21;;;;;;;9.5;4;;;;;;;5.88;71.19531;978.9005;;;;
2020/01/05 08:57:46;;;;;;;8.7;4.7;;;;;;;5.82;71.55664;978.8989;;;;
2020/01/05 09:00:11;;;;;;;10.6;4.7;;;;;;;5.75;71.75293;978.9246;;;;
2020/01/05 09:02:36;;;;;;;10.5;4.6;;;;;;;5.74;72.01855;978.8951;;;;
2020/01/05 09:05:01;;;;;;;10.8;4.6;;;;;;;5.77;72.03418;978.8654;;;;
2020/01/05 09:07:27;;;;;;;10.7;4.6;;;;;;;5.78;72.12988;978.8463;;;;
2020/01/05 09:09:52;;;;;;;11;4.7;;;;;;;5.79;72.05078;978.9149;;;;
2020/01/05 09:12:23;;;;;;;8.9;4.6;;;;;;;5.85;71.62012;978.9922;;;;
2020/01/05 09:14:42;;;;;;;12.7;6.3;;;;;;;5.8;71.51758;978.9874;;;;
2020/01/05 09:17:07;;;;;;;12.3;4.8;;;;;;;5.85;71.65332;978.993;;;;
2020/01/05 09:19:32;;;;;;;9.8;4.3;;;;;;;5.88;71.32324;978.9724;;;;
2020/01/05 09:21:57;;;;;;;8.6;4.6;;;;;;;5.8;71.58789;978.9705;;;;
2020/01/05 09:24:22;;;;;;;10;4.3;;;;;;;5.85;71.72461;978.9533;;;;
2020/01/05 09:26:48;;;;;;;8.8;4.3;;;;;;;5.93;71.6084;979.0126;;;;
2020/01/05 09:29:13;;;;;;;9.1;4.4;;;;;;;5.95;71.35645;978.9878;;;;
2020/01/05 09:31:38;;;;;;;9.7;4.6;;;;;;;6.02;71.02051;979.017;;;;
2020/01/05 09:34:03;;;;;;;11.9;5;;;;;;;5.96;71.2207;979.0159;;;;
2020/01/05 09:36:28;;;;;;;10.3;4.4;;;;;;;6.07;71.1582;979.0823;;;;
2020/01/05 09:38:53;;;;;;;11.4;4.8;;;;;;;6.11;70.76953;979.0603;;;;
2020/01/05 09:41:19;;;;;;;10;4.9;;;;;;;6.11;71.21094;978.9747;;;;
2020/01/05 09:43:44;;;;;;;13.4;4.8;;;;;;;6.09;70.53516;978.8652;;;;
2020/01/05 09:46:09;;;;;;;13;5;;;;;;;6.15;70.44043;978.8098;;;;
2020/01/05 09:48:35;;;;;;;11.8;5;;;;;;;6.11;70.64258;978.8172;;;;
2020/01/05 09:51:00;;;;;;;11.8;5.6;;;;;;;6.24;70.56934;978.7914;;;;
2020/01/05 09:53:25;;;;;;;11.7;5.3;;;;;;;6.19;70.91016;978.7936;;;;
2020/01/05 09:55:50;;;;;;;9.9;5.4;;;;;;;6.27;70.67969;978.8391;;;;
2020/01/05 09:58:15;;;;;;;12.5;5.8;;;;;;;6.34;70.28516;978.8387;;;;
2020/01/05 10:00:40;;;;;;;10.6;5.4;;;;;;;6.39;69.60938;978.7969;;;;
2020/01/05 10:03:05;;;;;;;10.9;5.7;;;;;;;6.35;69.96191;978.805;;;;
2020/01/05 10:05:30;;;;;;;14.2;5.6;;;;;;;6.32;70.06152;978.8042;;;;
2020/01/05 10:07:55;;;;;;;11.7;5.5;;;;;;;6.37;69.75586;978.7587;;;;
2020/01/05 10:10:21;;;;;;;9.6;5.3;;;;;;;6.42;69.62695;978.7346;;;;
2020/01/05 10:12:46;;;;;;;12.1;5.7;;;;;;;6.49;69.20703;978.7784;;;;
2020/01/05 10:15:11;;;;;;;10.1;5.6;;;;;;;6.46;69.17969;978.7321;;;;
2020/01/05 10:17:36;;;;;;;9.4;5.3;;;;;;;6.4;69.90039;978.7715;;;;
2020/01/05 10:20:01;;;;;;;10.7;5.7;;;;;;;6.46;69.27246;978.7353;;;;
2020/01/05 10:22:26;;;;;;;9.9;5.6;;;;;;;6.49;69.2666;978.7453;;;;
2020/01/05 10:24:51;;;;;;;10.8;6.1;;;;;;;6.46;69.44629;978.6568;;;;
2020/01/05 10:27:24;;;;;;;10.7;6;;;;;;;6.65;69;978.6397;;;;
2020/01/05 10:32:21;;;;;;;10.5;6;;;;;;;7.07;67.83398;978.543;;;;
2020/01/05 10:37:02;;;;;;;11.7;5.9;;;;;;;7.32;66.82813;978.5598;;;;
2020/01/05 10:39:23;;;;;;;10.7;6.5;;;;;;;7.53;66.38379;978.5497;;;;
2020/01/05 10:41:48;;;;;;;10.5;6.1;;;;;;;7.53;66.18555;978.5287;;;;
2020/01/05 10:44:13;;;;;;;10;6.4;;;;;;;7.38;66.5127;978.5725;;;;
2020/01/05 10:46:38;;;;;;;10.1;6.3;;;;;;;7.42;66.72754;978.5618;;;;
2020/01/05 10:49:03;;;;;;;11.5;6.5;;;;;;;7.3;66.60547;978.565;;;;
2020/01/05 10:51:28;;;;;;;12.2;6.7;;;;;;;7.34;66.34375;978.5858;;;;
2020/01/05 10:53:53;;;;;;;9.7;6.6;;;;;;;7.25;66.65527;978.5557;;;;
2020/01/05 10:56:18;;;;;;;10.7;6.5;;;;;;;7.3;67.05957;978.5123;;;;
2020/01/05 10:58:44;;;;;;;8.9;6.4;;;;;;;7.5;66.70508;978.5531;;;;
2020/01/05 11:01:09;;;;;;;10.8;6.4;;;;;;;7.81;65.92676;978.5134;;;;
2020/01/05 11:03:42;;;;;;;10.7;6.7;;;;;;;8.09;64.7793;978.4504;;;;
2020/01/05 11:05:59;;;;;;;11.1;6.7;;;;;;;8.13;64.3916;978.437;;;;
2020/01/05 11:08:24;;;;;;;11.2;6.7;;;;;;;8.05;64.18164;978.4345;;;;
2020/01/05 11:10:49;;;;;;;8.9;6.5;;;;;;;8.25;63.98828;978.4519;;;;
2020/01/05 11:13:14;;;;;;;12;7.1;;;;;;;8.32;63.83691;978.4208;;;;
2020/01/05 11:15:39;;;;;;;11.3;7.2;;;;;;;8.21;63.92676;978.4313;;;;
2020/01/05 11:18:05;;;;;;;10.2;6.4;;;;;;;8.15;64.28906;978.3903;;;;
2020/01/05 11:20:30;;;;;;;8.6;6;;;;;;;8.15;63.29785;978.3384;;;;
2020/01/05 11:22:55;;;;;;;9.6;6.2;;;;;;;8.03;64.41016;978.3219;;;;
2020/01/05 11:25:20;;;;;;;8.5;6.3;;;;;;;7.92;64.50977;978.2564;;;;
2020/01/05 11:27:45;;;;;;;8.6;6;;;;;;;7.89;64.65723;978.2509;;;;
2020/01/05 11:30:11;;;;;;;10.4;6.6;;;;;;;7.84;65.06836;978.2176;;;;
2020/01/05 11:32:36;;;;;;;9;6.8;;;;;;;7.94;64.76953;978.2322;;;;
2020/01/05 11:35:01;;;;;;;10.5;7;;;;;;;7.83;64.97559;978.2872;;;;
2020/01/05 11:37:26;;;;;;;9;6.7;;;;;;;7.81;64.69238;978.2307;;;;
2020/01/05 11:39:51;;;;;;;8.6;6.3;;;;;;;7.65;64.63281;978.1682;;;;
2020/01/05 11:42:16;;;;;;;9.1;5.8;;;;;;;7.69;64.31348;978.1125;;;;
2020/01/05 11:44:41;;;;;;;9.9;6.7;;;;;;;7.93;64.86328;978.0726;;;;
2020/01/05 11:47:07;;;;;;;12.3;6.8;;;;;;;8.07;64.13574;978.025;;;;
2020/01/05 11:49:32;;;;;;;9.9;6.6;;;;;;;8.23;62.94824;977.9745;;;;
2020/01/05 11:51:57;;;;;;;9.9;6.7;;;;;;;8.27;63.30371;977.9547;;;;
2020/01/05 11:54:22;;;;;;;8.1;5.8;;;;;;;8.18;62.4873;977.907;;;;
2020/01/05 11:56:47;;;;;;;10.4;6.3;;;;;;;8.43;61.78906;977.9495;;;;
2020/01/05 11:59:12;;;;;;;10.2;6.8;;;;;;;8.4;62.04102;977.8766;;;;
2020/01/05 12:01:38;;;;;;;9.4;6.8;;;;;;;8.39;62.70215;977.9378;;;;
2020/01/05 12:04:03;;;;;;;9;6.7;;;;;;;8.45;62.91211;977.8831;;;;
2020/01/05 12:06:28;;;;;;;5.8;4.3;;;;;;;8.37;59.99707;977.8192;;;;
2020/01/05 12:08:53;;;;;;;6;4.2;;;;;;;8.38;60.92969;977.8267;;;;
2020/01/05 12:11:18;;;;;;;6.3;4.7;;;;;;;8.29;61.2207;977.7294;;;;
2020/01/05 12:13:43;;;;;;;6.9;4.4;;;;;;;8.33;60.84082;977.7046;;;;
2020/01/05 12:16:09;;;;;;;8;4.4;;;;;;;8.31;61.56152;977.735;;;;
2020/01/05 12:18:34;;;;;;;5.8;3.8;;;;;;;8.4;60.29199;977.7241;;;;
2020/01/05 12:20:59;;;;;;;5.9;4.3;;;;;;;8.57;59.91895;977.6736;;;;
2020/01/05 12:23:24;;;;;;;5.8;4.5;;;;;;;8.43;60.02734;977.7224;;;;
2020/01/05 12:25:49;;;;;;;8.6;4.9;;;;;;;8.44;60.69336;977.671;;;;
2020/01/05 12:28:14;;;;;;;6.4;4.3;;;;;;;8.35;60.72754;977.6884;;;;
2020/01/05 12:30:39;;;;;;;6.2;3.9;;;;;;;8.33;60.21094;977.7386;;;;
2020/01/05 12:33:04;;;;;;;6.3;4.1;;;;;;;8.22;60.37109;977.7502;;;;
2020/01/05 12:35:29;;;;;;;5.9;4.2;;;;;;;8.18;60.50488;977.728;;;;
2020/01/05 12:37:57;;;;;;;6.3;4.6;;;;;;;8.08;60.75879;977.7166;;;;
2020/01/05 12:40:20;;;;;;;13.4;8.8;;;;;;;7.95;61.33496;977.7514;;;;
2020/01/05 12:42:53;;;;;;;11.2;7.9;;;;;;;8.06;62.07227;977.7017;;;;
2020/01/05 12:45:10;;;;;;;11.4;7.3;;;;;;;8.05;62.07227;977.7148;;;;
2020/01/05 12:47:35;;;;;;;10.1;5.9;;;;;;;8.01;62.52051;977.6926;;;;
2020/01/05 12:50:00;;;;;;;6.8;5.6;;;;;;;8.05;62.59668;977.7724;;;;
2020/01/05 12:52:26;;;;;;;8.3;5.7;;;;;;;7.95;62.5459;977.7985;;;;
2020/01/05 12:54:51;;;;;;;9.4;6.1;;;;;;;8.08;62.69336;977.7888;;;;
2020/01/05 12:57:16;;;;;;;6.8;5.6;;;;;;;8.01;62.99805;977.7712;;;;
2020/01/05 12:59:41;;;;;;;8.4;5.9;;;;;;;8.07;63.14648;977.81;;;;
2020/01/05 13:02:11;;;;;;;7.8;5.8;;;;;;;8.12;63.24805;977.8301;;;;
2020/01/05 13:04:40;;;;;;;9.5;5.4;;;;;;;8.08;61.81934;977.9104;;;;
2020/01/05 13:06:56;;;;;;;7.3;4.9;;;;;;;7.99;62.50586;977.9366;;;;
2020/01/05 13:09:21;;;;;;;8.5;5;;;;;;;7.95;61.66211;977.983;;;;
2020/01/05 13:11:47;;;;;;;6.8;4.7;;;;;;;7.7;62.00977;977.988;;;;
2020/01/05 13:16:06;;;;;;;9.5;5.4;;;;;;;7.73;63.61035;977.9614;;;;
2020/01/05 13:18:31;;;;;;;10.5;5.5;;;;;;;7.68;63.87988;977.9558;;;;
2020/01/05 13:20:56;;;;;;;9.4;5.8;;;;;;;7.73;63.73828;977.981;;;;
2020/01/05 13:23:21;;;;;;;8;5.2;;;;;;;7.83;63.29785;977.9196;;;;
2020/01/05 13:25:46;;;;;;;7.5;5.1;;;;;;;7.78;62.95313;977.9055;;;;
2020/01/05 13:28:11;;;;;;;7.8;5.2;;;;;;;7.82;63.13379;977.9036;;;;
2020/01/05 13:30:37;;;;;;;8.8;4.9;;;;;;;7.77;63.47559;977.8639;;;;
2020/01/05 13:33:02;;;;;;;8.6;4.9;;;;;;;7.81;63.01465;977.8239;;;;
2020/01/05 13:35:27;;;;;;;7.9;4.8;;;;;;;7.85;62.63574;977.8577;;;;
2020/01/05 13:38:01;;;;;;;10;4.8;;;;;;;7.87;62.7207;977.9053;;;;
2020/01/05 13:40:17;;;;;;;7.3;5.1;;;;;;;7.84;62.6123;977.9161;;;;
2020/01/05 13:42:42;;;;;;;8.6;4.7;;;;;;;7.92;62.40234;977.9688;;;;
2020/01/05 13:45:07;;;;;;;7.5;4.6;;;;;;;7.91;62.23828;977.9794;;;;
2020/01/05 13:47:32;;;;;;;9.7;5.2;;;;;;;7.82;61.7832;978.0219;;;;
2020/01/05 13:49:58;;;;;;;9.8;5.2;;;;;;;7.74;62.16797;978.0137;;;;
2020/01/05 13:52:23;;;;;;;7.1;4.9;;;;;;;7.69;61.6709;977.9943;;;;
2020/01/05 13:54:48;;;;;;;11.5;5.4;;;;;;;7.67;62.2041;978.0165;;;;
2020/01/05 13:57:13;;;;;;;8.5;5.3;;;;;;;7.71;61.89551;977.9814;;;;
2020/01/05 13:59:38;;;;;;;7.9;5.1;;;;;;;7.73;61.60645;978.0271;;;;
2020/01/05 14:02:03;;;;;;;7.9;5.1;;;;;;;7.81;61.71094;977.9916;;;;
2020/01/05 14:04:28;;;;;;;9.1;5.3;;;;;;;7.83;62.26172;978.0128;;;;
2020/01/05 14:06:53;;;;;;;6.3;4.4;;;;;;;7.64;61.18555;978.0128;;;;
2020/01/05 14:09:19;;;;;;;7.1;4;;;;;;;7.74;61.02637;978.0558;;;;
2020/01/05 14:11:44;;;;;;;8.6;4.5;;;;;;;7.73;61.30371;978.0742;;;;
2020/01/05 14:14:09;;;;;;;6.3;4.1;;;;;;;7.78;61.07813;978.0712;;;;
2020/01/05 14:16:35;;;;;;;8;4.3;;;;;;;7.84;61.0166;978.0829;;;;
2020/01/05 14:19:00;;;;;;;7.8;4.4;;;;;;;7.99;61.21289;978.0954;;;;
2020/01/05 14:21:25;;;;;;;7.8;4.3;;;;;;;7.97;61.36133;978.1047;;;;
2020/01/05 14:23:50;;;;;;;6.2;4.2;;;;;;;7.92;60.875;978.0976;;;;
2020/01/05 14:26:15;;;;;;;6.9;4.3;;;;;;;7.97;60.82617;978.1063;;;;
2020/01/05 14:28:40;;;;;;;6.8;4.3;;;;;;;7.91;60.81738;978.1643;;;;
2020/01/05 14:31:05;;;;;;;11.4;4.5;;;;;;;7.99;61.24805;978.1886;;;;